Mountain City, Nevada
Current Conditions -  °F | °C
As of 8:56 PM on Tuesday 25 Nov 2014 (Local Time) from KEKO Reporting Station
Clear Clear  
Wind Chill: 30°   Ceiling: Unl
Heat Index: 34°   Visibility: 10mi
Dew Point: 28°   Wind: 5mph
Humidity: 79%   Direction: 190°S
Pressure: 30.41"   Gusts: NA
Location:  41.84°N, 115.97°W
Report Text: KEKO 260456Z AUTO 19004KT 10SM CLR 01/M02 A3041 RMK AO2 SLP309 T00111022
Loading
Personal Weather Stations






























Interactive Weather Map New forecast layout! Learn more

10-Day Weather Forecast

Advertisements
Track Severe Weather on mobile